sensor_id;sensor_type;location;lat;lon;timestamp;P1;durP1;ratioP1;P2;durP2;ratioP2
1336;SDS011;662;48.814;9.318;2023-07-28T00:01:35;2.53;;;2.33;;
1336;SDS011;662;48.814;9.318;2023-07-28T00:04:01;3.23;;;2.70;;
1336;SDS011;662;48.814;9.318;2023-07-28T00:06:29;3.27;;;2.97;;
1336;SDS011;662;48.814;9.318;2023-07-28T00:08:55;3.20;;;2.90;;
1336;SDS011;662;48.814;9.318;2023-07-28T00:11:20;3.70;;;2.40;;
1336;SDS011;662;48.814;9.318;2023-07-28T00:13:46;2.87;;;2.67;;
1336;SDS011;662;48.814;9.318;2023-07-28T00:16:11;3.17;;;2.87;;
1336;SDS011;662;48.814;9.318;2023-07-28T00:18:37;3.60;;;2.57;;
1336;SDS011;662;48.814;9.318;2023-07-28T00:21:04;2.97;;;2.60;;
1336;SDS011;662;48.814;9.318;2023-07-28T00:23:31;3.37;;;3.07;;
1336;SDS011;662;48.814;9.318;2023-07-28T00:25:56;2.73;;;2.50;;
1336;SDS011;662;48.814;9.318;2023-07-28T00:28:22;2.70;;;2.50;;
1336;SDS011;662;48.814;9.318;2023-07-28T00:30:50;3.03;;;2.73;;
1336;SDS011;662;48.814;9.318;2023-07-28T00:33:16;3.20;;;2.90;;
1336;SDS011;662;48.814;9.318;2023-07-28T00:35:42;2.77;;;2.57;;
1336;SDS011;662;48.814;9.318;2023-07-28T00:38:08;2.97;;;2.67;;
1336;SDS011;662;48.814;9.318;2023-07-28T00:40:35;2.60;;;2.40;;
1336;SDS011;662;48.814;9.318;2023-07-28T00:43:01;3.40;;;2.70;;
1336;SDS011;662;48.814;9.318;2023-07-28T00:45:26;3.37;;;3.07;;
1336;SDS011;662;48.814;9.318;2023-07-28T00:47:53;3.13;;;2.60;;
1336;SDS011;662;48.814;9.318;2023-07-28T00:50:19;2.80;;;2.50;;
1336;SDS011;662;48.814;9.318;2023-07-28T00:52:45;3.10;;;2.80;;
1336;SDS011;662;48.814;9.318;2023-07-28T00:55:11;4.07;;;2.70;;
1336;SDS011;662;48.814;9.318;2023-07-28T00:57:37;3.00;;;2.60;;
1336;SDS011;662;48.814;9.318;2023-07-28T01:00:04;3.40;;;3.10;;
1336;SDS011;662;48.814;9.318;2023-07-28T01:02:30;2.80;;;2.60;;
1336;SDS011;662;48.814;9.318;2023-07-28T01:04:56;3.07;;;2.60;;
1336;SDS011;662;48.814;9.318;2023-07-28T01:10:33;2.90;;;2.57;;
1336;SDS011;662;48.814;9.318;2023-07-28T01:12:43;2.73;;;2.53;;
1336;SDS011;662;48.814;9.318;2023-07-28T01:15:08;3.10;;;2.80;;
1336;SDS011;662;48.814;9.318;2023-07-28T01:17:34;2.90;;;2.70;;
1336;SDS011;662;48.814;9.318;2023-07-28T01:20:02;2.60;;;2.40;;
1336;SDS011;662;48.814;9.318;2023-07-28T01:28:10;3.90;;;2.97;;
1336;SDS011;662;48.814;9.318;2023-07-28T01:30:37;2.83;;;2.60;;
1336;SDS011;662;48.814;9.318;2023-07-28T01:33:05;3.33;;;2.83;;
1336;SDS011;662;48.814;9.318;2023-07-28T01:35:32;3.20;;;2.90;;
1336;SDS011;662;48.814;9.318;2023-07-28T01:37:57;2.60;;;2.20;;
1336;SDS011;662;48.814;9.318;2023-07-28T01:40:23;2.60;;;2.40;;
1336;SDS011;662;48.814;9.318;2023-07-28T01:42:49;2.63;;;2.43;;
1336;SDS011;662;48.814;9.318;2023-07-28T01:45:14;2.70;;;2.17;;
1336;SDS011;662;48.814;9.318;2023-07-28T01:47:40;3.00;;;2.57;;
1336;SDS011;662;48.814;9.318;2023-07-28T01:50:06;3.03;;;2.53;;
1336;SDS011;662;48.814;9.318;2023-07-28T01:52:31;2.60;;;2.40;;
1336;SDS011;662;48.814;9.318;2023-07-28T01:54:57;3.20;;;2.77;;
1336;SDS011;662;48.814;9.318;2023-07-28T01:57:22;2.50;;;2.30;;
1336;SDS011;662;48.814;9.318;2023-07-28T01:59:52;3.70;;;2.90;;
1336;SDS011;662;48.814;9.318;2023-07-28T02:02:18;2.73;;;2.53;;
1336;SDS011;662;48.814;9.318;2023-07-28T02:04:43;2.77;;;2.57;;
1336;SDS011;662;48.814;9.318;2023-07-28T02:07:09;2.70;;;2.43;;
1336;SDS011;662;48.814;9.318;2023-07-28T02:09:34;3.10;;;2.70;;
1336;SDS011;662;48.814;9.318;2023-07-28T02:12:00;3.50;;;2.87;;
1336;SDS011;662;48.814;9.318;2023-07-28T02:14:26;3.00;;;2.70;;
1336;SDS011;662;48.814;9.318;2023-07-28T02:16:51;3.10;;;2.27;;
1336;SDS011;662;48.814;9.318;2023-07-28T02:19:17;2.80;;;2.60;;
1336;SDS011;662;48.814;9.318;2023-07-28T02:21:42;3.70;;;3.30;;
1336;SDS011;662;48.814;9.318;2023-07-28T02:24:08;3.40;;;3.10;;
1336;SDS011;662;48.814;9.318;2023-07-28T02:26:34;3.13;;;2.70;;
1336;SDS011;662;48.814;9.318;2023-07-28T02:28:59;2.90;;;2.70;;
1336;SDS011;662;48.814;9.318;2023-07-28T02:31:25;4.20;;;3.00;;
1336;SDS011;662;48.814;9.318;2023-07-28T02:33:50;4.07;;;2.87;;
1336;SDS011;662;48.814;9.318;2023-07-28T02:36:16;3.07;;;2.87;;
1336;SDS011;662;48.814;9.318;2023-07-28T02:38:41;3.20;;;2.90;;
1336;SDS011;662;48.814;9.318;2023-07-28T02:41:07;3.13;;;2.83;;
1336;SDS011;662;48.814;9.318;2023-07-28T02:43:33;3.43;;;3.13;;
1336;SDS011;662;48.814;9.318;2023-07-28T02:45:59;3.97;;;3.53;;
1336;SDS011;662;48.814;9.318;2023-07-28T02:48:25;4.40;;;3.03;;
1336;SDS011;662;48.814;9.318;2023-07-28T02:50:51;4.30;;;3.20;;
1336;SDS011;662;48.814;9.318;2023-07-28T02:53:17;3.73;;;3.40;;
1336;SDS011;662;48.814;9.318;2023-07-28T02:55:43;3.23;;;2.93;;
1336;SDS011;662;48.814;9.318;2023-07-28T02:58:09;3.50;;;3.20;;
1336;SDS011;662;48.814;9.318;2023-07-28T03:00:42;3.67;;;3.37;;
1336;SDS011;662;48.814;9.318;2023-07-28T03:03:09;4.13;;;3.73;;
1336;SDS011;662;48.814;9.318;2023-07-28T03:05:35;3.10;;;2.90;;
1336;SDS011;662;48.814;9.318;2023-07-28T03:08:02;4.00;;;3.60;;
1336;SDS011;662;48.814;9.318;2023-07-28T03:10:28;3.70;;;3.40;;
1336;SDS011;662;48.814;9.318;2023-07-28T03:12:53;3.60;;;3.27;;
1336;SDS011;662;48.814;9.318;2023-07-28T03:15:20;6.20;;;3.77;;
1336;SDS011;662;48.814;9.318;2023-07-28T03:17:49;3.90;;;3.50;;
1336;SDS011;662;48.814;9.318;2023-07-28T03:20:15;5.47;;;3.40;;
1336;SDS011;662;48.814;9.318;2023-07-28T03:22:41;3.70;;;3.00;;
1336;SDS011;662;48.814;9.318;2023-07-28T03:25:07;3.77;;;3.47;;
1336;SDS011;662;48.814;9.318;2023-07-28T03:27:33;3.67;;;3.17;;
1336;SDS011;662;48.814;9.318;2023-07-28T03:29:58;4.10;;;3.70;;
1336;SDS011;662;48.814;9.318;2023-07-28T03:32:24;3.93;;;3.53;;
1336;SDS011;662;48.814;9.318;2023-07-28T03:34:50;3.63;;;3.37;;
1336;SDS011;662;48.814;9.318;2023-07-28T03:37:15;4.73;;;3.73;;
1336;SDS011;662;48.814;9.318;2023-07-28T03:39:41;3.77;;;3.37;;
1336;SDS011;662;48.814;9.318;2023-07-28T03:42:07;3.50;;;3.20;;
1336;SDS011;662;48.814;9.318;2023-07-28T03:44:32;3.43;;;3.13;;
1336;SDS011;662;48.814;9.318;2023-07-28T03:46:59;3.33;;;3.13;;
1336;SDS011;662;48.814;9.318;2023-07-28T03:49:25;6.00;;;3.40;;
1336;SDS011;662;48.814;9.318;2023-07-28T03:51:50;3.50;;;2.90;;
1336;SDS011;662;48.814;9.318;2023-07-28T03:54:16;4.00;;;3.20;;
1336;SDS011;662;48.814;9.318;2023-07-28T03:56:41;4.33;;;3.17;;
1336;SDS011;662;48.814;9.318;2023-07-28T03:59:07;4.80;;;3.57;;
1336;SDS011;662;48.814;9.318;2023-07-28T04:01:32;3.50;;;3.20;;
1336;SDS011;662;48.814;9.318;2023-07-28T04:03:58;3.17;;;2.93;;
1336;SDS011;662;48.814;9.318;2023-07-28T04:06:44;5.90;;;3.00;;
1336;SDS011;662;48.814;9.318;2023-07-28T04:09:12;3.33;;;2.90;;
1336;SDS011;662;48.814;9.318;2023-07-28T04:11:39;3.13;;;2.93;;
1336;SDS011;662;48.814;9.318;2023-07-28T04:14:05;3.60;;;3.07;;
1336;SDS011;662;48.814;9.318;2023-07-28T04:16:31;3.40;;;3.10;;
1336;SDS011;662;48.814;9.318;2023-07-28T04:18:57;3.37;;;3.07;;
1336;SDS011;662;48.814;9.318;2023-07-28T04:21:22;2.40;;;2.20;;
1336;SDS011;662;48.814;9.318;2023-07-28T04:23:51;3.00;;;2.80;;
1336;SDS011;662;48.814;9.318;2023-07-28T04:26:17;6.13;;;3.57;;
1336;SDS011;662;48.814;9.318;2023-07-28T04:28:43;3.90;;;2.90;;
1336;SDS011;662;48.814;9.318;2023-07-28T04:31:08;3.70;;;3.30;;
1336;SDS011;662;48.814;9.318;2023-07-28T04:33:35;4.50;;;3.60;;
1336;SDS011;662;48.814;9.318;2023-07-28T04:36:03;3.90;;;3.60;;
1336;SDS011;662;48.814;9.318;2023-07-28T04:38:29;3.90;;;3.50;;
1336;SDS011;662;48.814;9.318;2023-07-28T04:40:55;4.37;;;3.57;;
1336;SDS011;662;48.814;9.318;2023-07-28T04:43:21;4.00;;;3.20;;
1336;SDS011;662;48.814;9.318;2023-07-28T04:45:46;3.30;;;2.97;;
1336;SDS011;662;48.814;9.318;2023-07-28T04:48:12;3.10;;;2.90;;
1336;SDS011;662;48.814;9.318;2023-07-28T04:50:38;3.23;;;2.93;;
1336;SDS011;662;48.814;9.318;2023-07-28T04:53:03;4.60;;;3.40;;
1336;SDS011;662;48.814;9.318;2023-07-28T04:55:29;3.47;;;3.17;;
1336;SDS011;662;48.814;9.318;2023-07-28T04:57:55;3.37;;;2.93;;
1336;SDS011;662;48.814;9.318;2023-07-28T05:00:22;3.40;;;3.10;;
1336;SDS011;662;48.814;9.318;2023-07-28T05:02:52;3.60;;;3.30;;
1336;SDS011;662;48.814;9.318;2023-07-28T05:05:26;4.97;;;3.00;;
1336;SDS011;662;48.814;9.318;2023-07-28T05:08:00;3.43;;;3.13;;
1336;SDS011;662;48.814;9.318;2023-07-28T05:10:25;4.00;;;3.70;;
1336;SDS011;662;48.814;9.318;2023-07-28T05:12:51;4.67;;;3.23;;
1336;SDS011;662;48.814;9.318;2023-07-28T05:15:17;3.80;;;3.50;;
1336;SDS011;662;48.814;9.318;2023-07-28T05:17:42;3.77;;;3.37;;
1336;SDS011;662;48.814;9.318;2023-07-28T05:20:08;3.93;;;3.63;;
1336;SDS011;662;48.814;9.318;2023-07-28T05:22:34;7.10;;;4.10;;
1336;SDS011;662;48.814;9.318;2023-07-28T05:25:00;3.67;;;3.37;;
1336;SDS011;662;48.814;9.318;2023-07-28T05:27:26;4.77;;;3.87;;
1336;SDS011;662;48.814;9.318;2023-07-28T05:29:52;6.27;;;3.97;;
1336;SDS011;662;48.814;9.318;2023-07-28T05:32:17;4.40;;;3.67;;
1336;SDS011;662;48.814;9.318;2023-07-28T05:34:43;7.00;;;4.23;;
1336;SDS011;662;48.814;9.318;2023-07-28T05:37:09;4.80;;;4.30;;
1336;SDS011;662;48.814;9.318;2023-07-28T05:39:35;4.30;;;3.90;;
1336;SDS011;662;48.814;9.318;2023-07-28T05:42:01;4.90;;;3.60;;
1336;SDS011;662;48.814;9.318;2023-07-28T05:44:26;3.93;;;3.53;;
1336;SDS011;662;48.814;9.318;2023-07-28T05:46:52;7.03;;;4.40;;
1336;SDS011;662;48.814;9.318;2023-07-28T05:49:18;6.60;;;4.10;;
1336;SDS011;662;48.814;9.318;2023-07-28T05:51:44;7.10;;;4.70;;
1336;SDS011;662;48.814;9.318;2023-07-28T05:54:09;11.47;;;4.70;;
1336;SDS011;662;48.814;9.318;2023-07-28T05:56:35;8.13;;;5.00;;
1336;SDS011;662;48.814;9.318;2023-07-28T05:59:00;8.17;;;5.33;;
1336;SDS011;662;48.814;9.318;2023-07-28T06:01:26;8.07;;;5.23;;
1336;SDS011;662;48.814;9.318;2023-07-28T06:03:52;8.50;;;5.20;;
1336;SDS011;662;48.814;9.318;2023-07-28T06:06:20;5.87;;;4.67;;
1336;SDS011;662;48.814;9.318;2023-07-28T06:08:47;9.60;;;5.50;;
1336;SDS011;662;48.814;9.318;2023-07-28T06:11:12;14.23;;;6.07;;
1336;SDS011;662;48.814;9.318;2023-07-28T06:13:38;6.20;;;4.53;;
1336;SDS011;662;48.814;9.318;2023-07-28T06:16:03;6.23;;;4.80;;
1336;SDS011;662;48.814;9.318;2023-07-28T06:18:29;9.20;;;5.70;;
1336;SDS011;662;48.814;9.318;2023-07-28T06:20:55;5.53;;;4.93;;
1336;SDS011;662;48.814;9.318;2023-07-28T06:23:20;9.37;;;5.30;;
1336;SDS011;662;48.814;9.318;2023-07-28T06:25:46;9.60;;;5.73;;
1336;SDS011;662;48.814;9.318;2023-07-28T06:28:11;6.67;;;4.33;;
1336;SDS011;662;48.814;9.318;2023-07-28T06:30:38;8.37;;;5.43;;
1336;SDS011;662;48.814;9.318;2023-07-28T06:33:07;7.30;;;5.40;;
1336;SDS011;662;48.814;9.318;2023-07-28T06:35:33;5.57;;;4.27;;
1336;SDS011;662;48.814;9.318;2023-07-28T06:37:59;5.80;;;4.20;;
1336;SDS011;662;48.814;9.318;2023-07-28T06:40:25;5.83;;;4.80;;
1336;SDS011;662;48.814;9.318;2023-07-28T06:42:51;5.80;;;4.97;;
1336;SDS011;662;48.814;9.318;2023-07-28T06:45:17;6.23;;;5.10;;
1336;SDS011;662;48.814;9.318;2023-07-28T06:47:42;5.00;;;4.50;;
1336;SDS011;662;48.814;9.318;2023-07-28T06:50:09;5.83;;;5.13;;
1336;SDS011;662;48.814;9.318;2023-07-28T06:52:35;7.07;;;4.83;;
1336;SDS011;662;48.814;9.318;2023-07-28T06:55:01;5.60;;;4.50;;
1336;SDS011;662;48.814;9.318;2023-07-28T06:57:27;7.63;;;5.37;;
1336;SDS011;662;48.814;9.318;2023-07-28T06:59:52;6.30;;;4.70;;
1336;SDS011;662;48.814;9.318;2023-07-28T07:02:18;6.30;;;5.10;;
1336;SDS011;662;48.814;9.318;2023-07-28T07:04:44;8.23;;;5.50;;
1336;SDS011;662;48.814;9.318;2023-07-28T07:07:09;6.27;;;4.63;;
1336;SDS011;662;48.814;9.318;2023-07-28T07:09:35;8.13;;;5.83;;
1336;SDS011;662;48.814;9.318;2023-07-28T07:12:01;5.80;;;4.93;;
1336;SDS011;662;48.814;9.318;2023-07-28T07:14:27;7.60;;;4.70;;
1336;SDS011;662;48.814;9.318;2023-07-28T07:16:58;4.50;;;4.10;;
1336;SDS011;662;48.814;9.318;2023-07-28T07:19:24;5.47;;;4.97;;
1336;SDS011;662;48.814;9.318;2023-07-28T07:21:49;5.53;;;4.20;;
1336;SDS011;662;48.814;9.318;2023-07-28T07:24:16;5.90;;;3.87;;
1336;SDS011;662;48.814;9.318;2023-07-28T07:26:41;6.57;;;4.33;;
1336;SDS011;662;48.814;9.318;2023-07-28T07:29:07;5.70;;;4.33;;
1336;SDS011;662;48.814;9.318;2023-07-28T07:31:34;4.80;;;4.40;;
1336;SDS011;662;48.814;9.318;2023-07-28T07:34:00;15.40;;;8.00;;
1336;SDS011;662;48.814;9.318;2023-07-28T07:36:26;20.60;;;10.40;;
1336;SDS011;662;48.814;9.318;2023-07-28T07:38:51;12.30;;;8.20;;
1336;SDS011;662;48.814;9.318;2023-07-28T07:41:17;7.03;;;5.90;;
1336;SDS011;662;48.814;9.318;2023-07-28T07:43:46;5.40;;;4.90;;
1336;SDS011;662;48.814;9.318;2023-07-28T07:46:15;5.77;;;5.13;;
1336;SDS011;662;48.814;9.318;2023-07-28T07:48:42;8.30;;;5.33;;
1336;SDS011;662;48.814;9.318;2023-07-28T07:51:08;5.17;;;4.33;;
1336;SDS011;662;48.814;9.318;2023-07-28T07:53:34;5.73;;;4.43;;
1336;SDS011;662;48.814;9.318;2023-07-28T07:56:01;4.00;;;3.60;;
1336;SDS011;662;48.814;9.318;2023-07-28T07:58:30;6.70;;;4.43;;
1336;SDS011;662;48.814;9.318;2023-07-28T08:00:56;5.23;;;4.73;;
1336;SDS011;662;48.814;9.318;2023-07-28T08:03:22;5.13;;;3.97;;
1336;SDS011;662;48.814;9.318;2023-07-28T08:05:49;4.53;;;4.13;;
1336;SDS011;662;48.814;9.318;2023-07-28T08:08:16;5.00;;;4.33;;
1336;SDS011;662;48.814;9.318;2023-07-28T08:10:42;5.80;;;4.00;;
1336;SDS011;662;48.814;9.318;2023-07-28T08:13:08;5.57;;;4.40;;
1336;SDS011;662;48.814;9.318;2023-07-28T08:15:34;5.13;;;4.20;;
1336;SDS011;662;48.814;9.318;2023-07-28T08:18:00;6.20;;;4.50;;
1336;SDS011;662;48.814;9.318;2023-07-28T08:20:25;4.70;;;4.30;;
1336;SDS011;662;48.814;9.318;2023-07-28T08:22:51;7.07;;;4.40;;
1336;SDS011;662;48.814;9.318;2023-07-28T08:25:19;4.93;;;4.53;;
1336;SDS011;662;48.814;9.318;2023-07-28T08:27:45;5.23;;;4.00;;
1336;SDS011;662;48.814;9.318;2023-07-28T08:30:11;6.17;;;4.30;;
1336;SDS011;662;48.814;9.318;2023-07-28T08:32:36;6.30;;;4.50;;
1336;SDS011;662;48.814;9.318;2023-07-28T08:35:02;5.30;;;4.50;;
1336;SDS011;662;48.814;9.318;2023-07-28T08:37:28;4.50;;;4.00;;
1336;SDS011;662;48.814;9.318;2023-07-28T08:39:54;4.87;;;4.37;;
1336;SDS011;662;48.814;9.318;2023-07-28T08:42:20;5.40;;;4.17;;
1336;SDS011;662;48.814;9.318;2023-07-28T08:44:47;5.33;;;4.40;;
1336;SDS011;662;48.814;9.318;2023-07-28T08:47:13;6.20;;;4.30;;
1336;SDS011;662;48.814;9.318;2023-07-28T08:49:39;4.40;;;4.00;;
1336;SDS011;662;48.814;9.318;2023-07-28T08:52:05;4.60;;;3.90;;
1336;SDS011;662;48.814;9.318;2023-07-28T08:54:31;6.40;;;4.90;;
1336;SDS011;662;48.814;9.318;2023-07-28T08:56:57;5.27;;;4.77;;
1336;SDS011;662;48.814;9.318;2023-07-28T08:59:24;5.47;;;4.47;;
1336;SDS011;662;48.814;9.318;2023-07-28T09:01:50;6.87;;;5.27;;
1336;SDS011;662;48.814;9.318;2023-07-28T09:04:23;5.50;;;5.00;;
1336;SDS011;662;48.814;9.318;2023-07-28T09:06:49;3.97;;;3.60;;
1336;SDS011;662;48.814;9.318;2023-07-28T09:09:16;5.00;;;4.10;;
1336;SDS011;662;48.814;9.318;2023-07-28T09:11:45;5.20;;;4.43;;
1336;SDS011;662;48.814;9.318;2023-07-28T09:14:21;5.07;;;4.57;;
1336;SDS011;662;48.814;9.318;2023-07-28T09:16:50;4.73;;;4.30;;
1336;SDS011;662;48.814;9.318;2023-07-28T09:19:16;7.53;;;4.73;;
1336;SDS011;662;48.814;9.318;2023-07-28T09:21:43;5.07;;;4.57;;
1336;SDS011;662;48.814;9.318;2023-07-28T09:24:11;5.20;;;4.70;;
1336;SDS011;662;48.814;9.318;2023-07-28T09:29:13;4.57;;;4.17;;
1336;SDS011;662;48.814;9.318;2023-07-28T09:31:40;4.87;;;4.37;;
1336;SDS011;662;48.814;9.318;2023-07-28T09:34:09;5.13;;;4.40;;
1336;SDS011;662;48.814;9.318;2023-07-28T09:36:36;4.97;;;4.10;;
1336;SDS011;662;48.814;9.318;2023-07-28T09:39:03;5.10;;;4.50;;
1336;SDS011;662;48.814;9.318;2023-07-28T09:41:37;5.43;;;4.90;;
1336;SDS011;662;48.814;9.318;2023-07-28T09:44:04;5.10;;;4.60;;
1336;SDS011;662;48.814;9.318;2023-07-28T09:46:34;4.73;;;4.03;;
1336;SDS011;662;48.814;9.318;2023-07-28T09:49:07;8.80;;;4.97;;
1336;SDS011;662;48.814;9.318;2023-07-28T09:51:37;8.00;;;4.40;;
1336;SDS011;662;48.814;9.318;2023-07-28T09:54:11;5.77;;;5.17;;
1336;SDS011;662;48.814;9.318;2023-07-28T09:56:37;8.90;;;5.87;;
1336;SDS011;662;48.814;9.318;2023-07-28T09:59:07;8.90;;;5.50;;
1336;SDS011;662;48.814;9.318;2023-07-28T10:01:36;5.57;;;5.03;;
1336;SDS011;662;48.814;9.318;2023-07-28T10:04:03;6.80;;;5.13;;
1336;SDS011;662;48.814;9.318;2023-07-28T10:06:30;5.10;;;4.60;;
1336;SDS011;662;48.814;9.318;2023-07-28T10:08:58;5.37;;;4.37;;
1336;SDS011;662;48.814;9.318;2023-07-28T10:11:24;4.73;;;4.13;;
1336;SDS011;662;48.814;9.318;2023-07-28T10:13:52;4.87;;;3.80;;
1336;SDS011;662;48.814;9.318;2023-07-28T10:16:19;8.63;;;4.73;;
1336;SDS011;662;48.814;9.318;2023-07-28T10:18:55;4.63;;;3.30;;
1336;SDS011;662;48.814;9.318;2023-07-28T10:21:21;4.00;;;3.60;;
1336;SDS011;662;48.814;9.318;2023-07-28T10:23:56;4.63;;;3.70;;
1336;SDS011;662;48.814;9.318;2023-07-28T10:29:22;4.17;;;3.60;;
1336;SDS011;662;48.814;9.318;2023-07-28T10:31:54;3.60;;;3.30;;
1336;SDS011;662;48.814;9.318;2023-07-28T10:34:23;4.83;;;3.10;;
1336;SDS011;662;48.814;9.318;2023-07-28T10:36:56;3.43;;;3.00;;
1336;SDS011;662;48.814;9.318;2023-07-28T10:39:25;3.53;;;3.00;;
1336;SDS011;662;48.814;9.318;2023-07-28T10:42:12;3.20;;;2.63;;
1336;SDS011;662;48.814;9.318;2023-07-28T10:44:37;3.47;;;2.87;;
1336;SDS011;662;48.814;9.318;2023-07-28T10:47:07;3.37;;;2.73;;
1336;SDS011;662;48.814;9.318;2023-07-28T10:49:34;2.90;;;2.63;;
1336;SDS011;662;48.814;9.318;2023-07-28T10:52:00;3.53;;;3.03;;
1336;SDS011;662;48.814;9.318;2023-07-28T10:54:25;2.73;;;2.30;;
1336;SDS011;662;48.814;9.318;2023-07-28T10:56:51;3.20;;;2.90;;
1336;SDS011;662;48.814;9.318;2023-07-28T10:59:17;4.63;;;2.50;;
1336;SDS011;662;48.814;9.318;2023-07-28T11:01:43;2.63;;;2.30;;
1336;SDS011;662;48.814;9.318;2023-07-28T11:07:00;2.63;;;2.20;;
1336;SDS011;662;48.814;9.318;2023-07-28T11:09:26;3.23;;;2.93;;
1336;SDS011;662;48.814;9.318;2023-07-28T11:11:51;2.93;;;2.23;;
1336;SDS011;662;48.814;9.318;2023-07-28T11:14:17;3.93;;;2.63;;
1336;SDS011;662;48.814;9.318;2023-07-28T11:16:43;3.40;;;2.53;;
1336;SDS011;662;48.814;9.318;2023-07-28T11:19:12;2.50;;;2.30;;
1336;SDS011;662;48.814;9.318;2023-07-28T11:21:39;2.70;;;2.50;;
1336;SDS011;662;48.814;9.318;2023-07-28T11:24:09;3.00;;;2.00;;
1336;SDS011;662;48.814;9.318;2023-07-28T11:26:35;3.17;;;2.33;;
1336;SDS011;662;48.814;9.318;2023-07-28T11:29:03;1.73;;;1.63;;
1336;SDS011;662;48.814;9.318;2023-07-28T11:31:29;2.80;;;2.30;;
1336;SDS011;662;48.814;9.318;2023-07-28T11:33:55;2.60;;;2.40;;
1336;SDS011;662;48.814;9.318;2023-07-28T11:36:21;2.10;;;1.90;;
1336;SDS011;662;48.814;9.318;2023-07-28T11:38:48;2.27;;;1.97;;
1336;SDS011;662;48.814;9.318;2023-07-28T11:41:15;2.63;;;2.43;;
1336;SDS011;662;48.814;9.318;2023-07-28T11:43:41;2.30;;;1.90;;
1336;SDS011;662;48.814;9.318;2023-07-28T11:49:09;3.23;;;2.07;;
1336;SDS011;662;48.814;9.318;2023-07-28T11:51:47;2.23;;;2.03;;
1336;SDS011;662;48.814;9.318;2023-07-28T11:54:14;2.23;;;1.97;;
1336;SDS011;662;48.814;9.318;2023-07-28T11:56:45;2.50;;;2.30;;
1336;SDS011;662;48.814;9.318;2023-07-28T11:59:11;2.03;;;1.83;;
1336;SDS011;662;48.814;9.318;2023-07-28T12:01:55;3.60;;;1.80;;
1336;SDS011;662;48.814;9.318;2023-07-28T12:04:23;2.57;;;2.37;;
1336;SDS011;662;48.814;9.318;2023-07-28T12:12:15;2.30;;;2.10;;
1336;SDS011;662;48.814;9.318;2023-07-28T12:14:42;2.00;;;1.87;;
1336;SDS011;662;48.814;9.318;2023-07-28T12:17:17;1.90;;;1.70;;
1336;SDS011;662;48.814;9.318;2023-07-28T12:19:59;1.70;;;1.60;;
1336;SDS011;662;48.814;9.318;2023-07-28T12:22:41;2.20;;;2.00;;
1336;SDS011;662;48.814;9.318;2023-07-28T12:25:11;2.10;;;1.80;;
1336;SDS011;662;48.814;9.318;2023-07-28T12:27:37;2.40;;;2.20;;
1336;SDS011;662;48.814;9.318;2023-07-28T12:30:03;3.03;;;1.87;;
1336;SDS011;662;48.814;9.318;2023-07-28T12:32:29;2.30;;;1.93;;
1336;SDS011;662;48.814;9.318;2023-07-28T12:34:55;2.20;;;2.00;;
1336;SDS011;662;48.814;9.318;2023-07-28T12:37:20;2.30;;;1.93;;
1336;SDS011;662;48.814;9.318;2023-07-28T12:39:48;1.60;;;1.50;;
1336;SDS011;662;48.814;9.318;2023-07-28T12:42:14;1.93;;;1.83;;
1336;SDS011;662;48.814;9.318;2023-07-28T12:44:40;2.30;;;2.10;;
1336;SDS011;662;48.814;9.318;2023-07-28T12:47:06;1.97;;;1.87;;
1336;SDS011;662;48.814;9.318;2023-07-28T12:49:33;3.10;;;1.50;;
1336;SDS011;662;48.814;9.318;2023-07-28T12:52:00;2.27;;;2.07;;
1336;SDS011;662;48.814;9.318;2023-07-28T12:54:27;1.63;;;1.47;;
1336;SDS011;662;48.814;9.318;2023-07-28T12:56:56;1.80;;;1.70;;
1336;SDS011;662;48.814;9.318;2023-07-28T12:59:22;1.60;;;1.50;;
1336;SDS011;662;48.814;9.318;2023-07-28T13:01:47;2.20;;;1.60;;
1336;SDS011;662;48.814;9.318;2023-07-28T13:04:16;1.80;;;1.70;;
1336;SDS011;662;48.814;9.318;2023-07-28T13:06:48;1.50;;;1.40;;
1336;SDS011;662;48.814;9.318;2023-07-28T13:09:13;2.27;;;1.80;;
1336;SDS011;662;48.814;9.318;2023-07-28T13:11:39;2.10;;;1.80;;
1336;SDS011;662;48.814;9.318;2023-07-28T13:14:04;2.07;;;1.87;;
1336;SDS011;662;48.814;9.318;2023-07-28T13:16:30;2.60;;;1.67;;
1336;SDS011;662;48.814;9.318;2023-07-28T13:18:56;2.40;;;1.83;;
1336;SDS011;662;48.814;9.318;2023-07-28T13:21:22;2.83;;;2.10;;
1336;SDS011;662;48.814;9.318;2023-07-28T13:23:48;1.77;;;1.67;;
1336;SDS011;662;48.814;9.318;2023-07-28T13:26:14;1.83;;;1.73;;
1336;SDS011;662;48.814;9.318;2023-07-28T13:28:39;1.70;;;1.60;;
1336;SDS011;662;48.814;9.318;2023-07-28T13:31:11;1.77;;;1.67;;
1336;SDS011;662;48.814;9.318;2023-07-28T13:33:41;2.73;;;2.20;;
1336;SDS011;662;48.814;9.318;2023-07-28T13:36:07;2.90;;;2.10;;
1336;SDS011;662;48.814;9.318;2023-07-28T13:38:33;2.63;;;1.70;;
1336;SDS011;662;48.814;9.318;2023-07-28T13:40:59;1.70;;;1.60;;
1336;SDS011;662;48.814;9.318;2023-07-28T13:43:24;2.23;;;1.93;;
1336;SDS011;662;48.814;9.318;2023-07-28T13:45:50;2.60;;;2.30;;
1336;SDS011;662;48.814;9.318;2023-07-28T13:48:16;4.67;;;2.33;;
1336;SDS011;662;48.814;9.318;2023-07-28T13:50:42;3.57;;;2.63;;
1336;SDS011;662;48.814;9.318;2023-07-28T13:53:07;3.30;;;2.17;;
1336;SDS011;662;48.814;9.318;2023-07-28T13:55:33;2.77;;;2.57;;
1336;SDS011;662;48.814;9.318;2023-07-28T13:57:59;2.73;;;2.53;;
1336;SDS011;662;48.814;9.318;2023-07-28T14:00:25;4.00;;;2.70;;
1336;SDS011;662;48.814;9.318;2023-07-28T14:02:50;7.00;;;3.40;;
1336;SDS011;662;48.814;9.318;2023-07-28T14:05:16;10.33;;;3.30;;
1336;SDS011;662;48.814;9.318;2023-07-28T14:07:42;2.70;;;2.23;;
1336;SDS011;662;48.814;9.318;2023-07-28T14:10:07;9.60;;;4.07;;
1336;SDS011;662;48.814;9.318;2023-07-28T14:12:33;5.77;;;3.27;;
1336;SDS011;662;48.814;9.318;2023-07-28T14:14:59;3.87;;;2.50;;
1336;SDS011;662;48.814;9.318;2023-07-28T14:17:24;3.70;;;2.60;;
1336;SDS011;662;48.814;9.318;2023-07-28T14:19:50;3.37;;;3.03;;
1336;SDS011;662;48.814;9.318;2023-07-28T14:22:17;4.60;;;2.57;;
1336;SDS011;662;48.814;9.318;2023-07-28T14:24:42;3.53;;;2.80;;
1336;SDS011;662;48.814;9.318;2023-07-28T14:27:08;4.60;;;3.13;;
1336;SDS011;662;48.814;9.318;2023-07-28T14:29:33;3.73;;;3.30;;
1336;SDS011;662;48.814;9.318;2023-07-28T14:31:59;5.13;;;3.80;;
1336;SDS011;662;48.814;9.318;2023-07-28T14:34:24;3.73;;;3.33;;
1336;SDS011;662;48.814;9.318;2023-07-28T14:36:50;4.00;;;3.27;;
1336;SDS011;662;48.814;9.318;2023-07-28T14:39:15;6.50;;;3.50;;
1336;SDS011;662;48.814;9.318;2023-07-28T14:41:42;4.97;;;3.03;;
1336;SDS011;662;48.814;9.318;2023-07-28T14:44:08;3.73;;;3.40;;
1336;SDS011;662;48.814;9.318;2023-07-28T14:46:33;4.83;;;3.53;;
1336;SDS011;662;48.814;9.318;2023-07-28T14:48:59;4.57;;;3.20;;
1336;SDS011;662;48.814;9.318;2023-07-28T14:51:24;6.03;;;4.10;;
1336;SDS011;662;48.814;9.318;2023-07-28T14:53:50;3.63;;;3.30;;
1336;SDS011;662;48.814;9.318;2023-07-28T14:56:17;5.07;;;3.97;;
1336;SDS011;662;48.814;9.318;2023-07-28T14:58:42;4.40;;;2.97;;
1336;SDS011;662;48.814;9.318;2023-07-28T15:01:11;3.40;;;3.10;;
1336;SDS011;662;48.814;9.318;2023-07-28T15:03:37;3.50;;;3.20;;
1336;SDS011;662;48.814;9.318;2023-07-28T15:06:04;4.53;;;3.50;;
1336;SDS011;662;48.814;9.318;2023-07-28T15:08:30;4.23;;;3.60;;
1336;SDS011;662;48.814;9.318;2023-07-28T15:10:56;7.73;;;3.67;;
1336;SDS011;662;48.814;9.318;2023-07-28T15:13:23;5.03;;;2.80;;
1336;SDS011;662;48.814;9.318;2023-07-28T15:16:01;6.30;;;3.40;;
1336;SDS011;662;48.814;9.318;2023-07-28T15:18:27;3.20;;;2.90;;
1336;SDS011;662;48.814;9.318;2023-07-28T15:20:52;4.80;;;3.17;;
1336;SDS011;662;48.814;9.318;2023-07-28T15:23:21;4.33;;;3.93;;
1336;SDS011;662;48.814;9.318;2023-07-28T15:25:47;6.13;;;4.00;;
1336;SDS011;662;48.814;9.318;2023-07-28T15:28:13;3.93;;;3.00;;
1336;SDS011;662;48.814;9.318;2023-07-28T15:30:40;3.43;;;3.13;;
1336;SDS011;662;48.814;9.318;2023-07-28T15:33:07;3.90;;;3.50;;
1336;SDS011;662;48.814;9.318;2023-07-28T15:35:33;4.13;;;3.40;;
1336;SDS011;662;48.814;9.318;2023-07-28T15:37:59;5.20;;;3.53;;
1336;SDS011;662;48.814;9.318;2023-07-28T15:40:25;4.80;;;3.90;;
1336;SDS011;662;48.814;9.318;2023-07-28T15:42:51;3.90;;;3.50;;
1336;SDS011;662;48.814;9.318;2023-07-28T15:45:17;4.43;;;3.40;;
1336;SDS011;662;48.814;9.318;2023-07-28T15:47:42;4.70;;;3.53;;
1336;SDS011;662;48.814;9.318;2023-07-28T15:50:08;3.90;;;3.40;;
1336;SDS011;662;48.814;9.318;2023-07-28T15:52:34;3.90;;;3.53;;